Погода Жилгана неделю

Южно-Казахстанская область, Казахстан

25 - 31 июля
  • 25июля
    Сегодня
    +25°
    +38°
    Практически безоблачно
    ВремяПогодаТемператураВлажностьДавлениеВетер, м/сВероятность осадков
    02:00Ясно и безоблачно+26°C37 %701 мм2.3 м/с2 %
    05:00Ясно и безоблачно+25°C41 %701 мм1.9 м/с2 %
    08:00Ясно и безоблачно+29°C36 %703 мм1.1 м/с2 %
    11:00Ясно и безоблачно+36°C20 %703 мм0.7 м/с2 %
    14:00Практически безоблачно+39°C15 %703 мм4.7 м/с2 %
    17:00Ясно и безоблачно+37°C17 %703 мм4.4 м/с2 %
    20:00Ясно и безоблачно+34°C21 %703 мм3.7 м/с2 %
    23:00Ясно и безоблачно+28°C29 %703 мм2.2 м/с2 %
  • 26июля
    Пятница
    +24°
    +40°
    Практически безоблачно
    ВремяПогодаТемператураВлажностьДавлениеВетер, м/сВероятность осадков
    02:00Ясно и безоблачно+26°C35 %702 мм1.7 м/с2 %
    05:00Ясно и безоблачно+26°C36 %702 мм1.0 м/с2 %
    08:00Ясно и безоблачно+31°C34 %704 мм1.1 м/с2 %
    11:00Ясно и безоблачно+37°C20 %706 мм2.0 м/с2 %
    14:00Практически безоблачно+39°C16 %705 мм2.4 м/с2 %
    17:00Практически безоблачно+39°C16 %705 мм3.1 м/с2 %
    20:00Ясно и безоблачно+34°C25 %706 мм3.1 м/с2 %
    23:00Ясно и безоблачно+29°C35 %706 мм4.1 м/с2 %
  • 27июля
    Суббота
    +24°
    +38°
    Ясно и безоблачно
    ВремяПогодаТемператураВлажностьДавлениеВетер, м/сВероятность осадков
    02:00Ясно и безоблачно+27°C40 %706 мм4.7 м/с2 %
    05:00Ясно и безоблачно+24°C45 %705 мм3.6 м/с2 %
    08:00Ясно и безоблачно+30°C38 %707 мм1.9 м/с2 %
    11:00Ясно и безоблачно+37°C24 %707 мм1.7 м/с2 %
    14:00Ясно и безоблачно+37°C22 %707 мм3.8 м/с2 %
    17:00Ясно и безоблачно+37°C22 %707 мм3.9 м/с2 %
    20:00Ясно и безоблачно+33°C26 %707 мм3.3 м/с2 %
    23:00Ясно и безоблачно+29°C30 %707 мм3.2 м/с2 %
  • 28июля
    Воскресенье
    +23°
    +39°
    Ясно и безоблачно
    ВремяПогодаТемператураВлажностьДавлениеВетер, м/сВероятность осадков
    02:00Ясно и безоблачно+25°C36 %706 мм2.5 м/с2 %
    05:00Ясно и безоблачно+25°C38 %706 мм1.9 м/с2 %
    08:00Ясно и безоблачно+31°C34 %708 мм0.5 м/с2 %
    11:00Ясно и безоблачно+37°C20 %708 мм1.3 м/с2 %
    14:00Ясно и безоблачно+39°C16 %708 мм2.3 м/с2 %
    17:00Ясно и безоблачно+38°C18 %707 мм3.3 м/с2 %
    20:00Ясно и безоблачно+33°C24 %707 мм2.7 м/с2 %
    23:00Ясно и безоблачно+28°C30 %706 мм2.2 м/с2 %
  • 29июля
    Понедельник
    +22°
    +38°
    Ясно и безоблачно
    ВремяПогодаТемператураВлажностьДавлениеВетер, м/сВероятность осадков
    02:00Ясно и безоблачно+25°C38 %705 мм1.8 м/с2 %
    05:00Ясно и безоблачно+24°C41 %705 мм1.2 м/с2 %
    08:00Ясно и безоблачно+30°C32 %707 мм1.0 м/с2 %
    11:00Ясно и безоблачно+35°C21 %707 мм1.6 м/с2 %
    14:00Ясно и безоблачно+37°C18 %706 мм3.4 м/с2 %
    17:00Ясно и безоблачно+37°C17 %706 мм4.2 м/с2 %
    20:00Ясно и безоблачно+33°C20 %706 мм3.1 м/с2 %
    23:00Ясно и безоблачно+28°C23 %707 мм3.7 м/с2 %
Мы используем cookies
Соглашаюсь